createdAt,value
2022-09-28T00:03:46.833Z,96460.16
2022-09-28T00:08:50.112Z,96452.50
2022-09-28T00:13:56.516Z,96444.72
2022-09-28T00:19:01.016Z,96436.97
2022-09-28T00:24:15.261Z,96430.81
2022-09-28T00:29:21.546Z,96422.84
2022-09-28T00:34:25.574Z,96415.72
2022-09-28T00:39:31.570Z,96416.41
2022-09-28T00:44:48.777Z,96408.09
2022-09-28T00:49:57.860Z,96416.38
2022-09-28T00:55:02.951Z,96409.09
2022-09-28T01:00:07.401Z,96412.41
2022-09-28T01:05:14.108Z,96401.94
2022-09-28T01:10:17.031Z,96391.16
2022-09-28T01:15:22.811Z,96382.34
2022-09-28T01:20:35.484Z,96384.88
2022-09-28T01:25:42.324Z,96377.06
2022-09-28T01:30:52.495Z,96373.91
2022-09-28T01:36:00.789Z,96371.25
2022-09-28T01:41:05.955Z,96374.25
2022-09-28T01:46:14.741Z,96374.41
2022-09-28T01:51:23.487Z,96367.94
2022-09-28T01:56:29.779Z,96373.09
2022-09-28T02:01:40.955Z,96364.94
2022-09-28T02:06:49.905Z,96357.31
2022-09-28T02:11:59.036Z,96361.81
2022-09-28T02:17:04.227Z,96359.16
2022-09-28T02:22:23.103Z,96361.81
2022-09-28T02:27:35.298Z,96359.16
2022-09-28T02:32:43.174Z,96360.97
2022-09-28T02:37:46.841Z,96352.19
2022-09-28T02:43:03.101Z,96362.81
2022-09-28T02:48:35.976Z,96358.47
2022-09-28T02:53:54.413Z,96361.31
2022-09-28T02:59:06.580Z,96358.81
2022-09-28T03:04:19.161Z,96362.47
2022-09-28T03:09:27.715Z,96357.69
2022-09-28T03:14:30.577Z,96358.69
2022-09-28T03:19:36.741Z,96363.66
2022-09-28T03:24:39.523Z,96362.31
2022-09-28T03:29:42.769Z,96370.44
2022-09-28T03:34:47.237Z,96370.44
2022-09-28T03:39:50.248Z,96374.25
2022-09-28T03:44:53.118Z,96374.09
2022-09-28T03:49:57.239Z,96375.78
2022-09-28T03:54:59.916Z,96377.56
2022-09-28T04:00:03.247Z,96373.44
2022-09-28T04:05:17.748Z,96371.44
2022-09-28T04:43:30.761Z,96380.19
2022-09-28T04:48:33.768Z,96380.47
2022-09-28T04:53:56.166Z,96378.81
2022-09-28T04:59:00.529Z,96381.47
2022-09-28T05:04:03.895Z,96388.41
2022-09-28T05:09:25.490Z,96389.75
2022-09-28T05:14:30.256Z,96387.63
2022-09-28T05:19:35.322Z,96397.22
2022-09-28T05:24:39.799Z,96402.34
2022-09-28T05:29:44.015Z,96404.03
2022-09-28T05:35:06.437Z,96412.47
2022-09-28T05:40:17.272Z,96409.69
2022-09-28T05:45:21.521Z,96415.66
2022-09-28T05:50:27.390Z,96419.09
2022-09-28T05:55:30.731Z,96415.00
2022-09-28T06:00:36.411Z,96411.53
2022-09-28T06:05:40.469Z,96414.66
2022-09-28T06:10:43.330Z,96411.03
2022-09-28T06:15:48.356Z,96423.28
2022-09-28T06:20:51.362Z,96419.16
2022-09-28T06:26:02.715Z,96424.81
2022-09-28T06:31:08.416Z,96431.13
2022-09-28T06:36:20.043Z,96434.63
2022-09-28T06:41:22.847Z,96440.09
2022-09-28T06:46:27.572Z,96456.19
2022-09-28T06:51:49.223Z,96450.19
2022-09-28T06:56:58.186Z,96452.84
2022-09-28T07:02:03.441Z,96457.50
2022-09-28T07:07:44.725Z,96461.34
2022-09-28T07:13:47.968Z,96460.53
2022-09-28T07:18:46.447Z,96470.78
2022-09-28T07:23:53.776Z,96478.94
2022-09-28T07:28:57.432Z,96488.22
2022-09-28T07:34:23.523Z,96497.72
2022-09-28T07:39:57.002Z,96487.72
2022-09-28T07:45:00.215Z,96495.56
2022-09-28T07:50:04.675Z,96503.63
2022-09-28T07:55:26.447Z,96516.38
2022-09-28T08:00:42.078Z,96512.88
2022-09-28T08:05:47.417Z,96529.22
2022-09-28T08:16:39.467Z,96541.22
2022-09-28T08:21:51.418Z,96546.25
2022-09-28T08:26:55.565Z,96555.09
2022-09-28T08:32:02.513Z,96555.94
2022-09-28T08:37:12.620Z,96565.06
2022-09-28T08:42:42.840Z,96576.78
2022-09-28T08:48:29.887Z,96573.78
2022-09-28T08:53:57.769Z,96579.72
2022-09-28T08:59:14.456Z,96585.34
2022-09-28T09:04:22.971Z,96587.78
2022-09-28T09:10:03.140Z,96595.06
2022-09-28T09:15:39.509Z,96601.69
2022-09-28T09:20:56.955Z,96609.75
2022-09-28T09:26:22.061Z,96613.41
2022-09-28T09:31:39.493Z,96614.63
2022-09-28T09:36:59.074Z,96607.31
2022-09-28T09:42:39.503Z,96605.78
2022-09-28T09:48:03.161Z,96611.44
2022-09-28T09:53:16.372Z,96614.91
2022-09-28T09:58:26.521Z,96607.31
2022-09-28T10:03:43.119Z,96623.78
2022-09-28T10:09:02.536Z,96620.13
2022-09-28T10:14:08.174Z,96613.59
2022-09-28T10:19:22.563Z,96614.63
2022-09-28T10:24:57.638Z,96615.69
2022-09-28T10:30:17.129Z,96623.81
2022-09-28T10:35:26.965Z,96624.34
2022-09-28T10:40:43.382Z,96630.31
2022-09-28T10:45:49.230Z,96641.81
2022-09-28T10:51:00.945Z,96641.66
2022-09-28T10:56:06.220Z,96636.25
2022-09-28T11:01:13.514Z,96638.41
2022-09-28T11:06:17.577Z,96634.09
2022-09-28T11:11:20.899Z,96630.47
2022-09-28T11:16:36.220Z,96645.13
2022-09-28T11:21:45.946Z,96652.44
2022-09-28T11:39:41.639Z,96648.53
2022-09-28T11:44:47.559Z,96642.53
2022-09-28T11:50:00.942Z,96639.03
2022-09-28T11:55:12.745Z,96645.06
2022-09-28T12:00:20.656Z,96631.28
2022-09-28T12:05:33.172Z,96640.56
2022-09-28T12:10:45.449Z,96645.75
2022-09-28T12:21:34.595Z,96641.91
2022-09-28T12:26:45.641Z,96643.31
2022-09-28T12:32:01.841Z,96642.97
2022-09-28T12:37:24.207Z,96646.69
2022-09-28T12:42:47.193Z,96650.75
2022-09-28T12:48:21.587Z,96652.97
2022-09-28T12:53:41.401Z,96651.28
2022-09-28T12:58:59.890Z,96652.44
2022-09-28T13:04:37.873Z,96663.50
2022-09-28T13:09:53.331Z,96649.13
2022-09-28T13:15:27.436Z,96652.31
2022-09-28T13:20:47.544Z,96650.63
2022-09-28T13:26:00.877Z,96653.94
2022-09-28T13:31:05.876Z,96650.13
2022-09-28T13:36:37.587Z,96649.91
2022-09-28T13:41:50.599Z,96651.81
2022-09-28T13:47:07.708Z,96650.13
2022-09-28T13:52:13.937Z,96644.16
2022-09-28T13:57:25.990Z,96643.88
2022-09-28T14:02:36.760Z,96660.72
2022-09-28T14:07:58.831Z,96659.63
2022-09-28T14:13:06.552Z,96660.66
2022-09-28T14:18:23.739Z,96661.66
2022-09-28T14:23:59.073Z,96655.88
2022-09-28T14:29:17.742Z,96659.81
2022-09-28T14:34:31.083Z,96665.34
2022-09-28T14:39:54.142Z,96664.56
2022-09-28T14:45:30.156Z,96667.00
2022-09-28T14:50:34.578Z,96665.53
2022-09-28T14:55:45.029Z,96671.84
2022-09-28T15:00:50.021Z,96671.13
2022-09-28T15:05:54.323Z,96677.16
2022-09-28T15:11:02.265Z,96678.31
2022-09-28T15:16:09.827Z,96673.28
2022-09-28T15:21:14.806Z,96680.09
2022-09-28T15:26:27.798Z,96681.75
2022-09-28T15:31:35.757Z,96683.66
2022-09-28T15:36:42.128Z,96681.09
2022-09-28T15:41:47.100Z,96677.25
2022-09-28T15:46:50.575Z,96674.66
2022-09-28T15:51:56.523Z,96677.59
2022-09-28T15:57:02.586Z,96677.44
2022-09-28T16:02:13.792Z,96686.47
2022-09-28T16:07:25.501Z,96695.28
2022-09-28T16:12:34.941Z,96690.84
2022-09-28T16:17:38.364Z,96689.19
2022-09-28T16:22:44.083Z,96692.72
2022-09-28T16:27:47.855Z,96693.25
2022-09-28T16:32:57.965Z,96695.81
2022-09-28T16:38:05.679Z,96698.88
2022-09-28T16:43:10.282Z,96699.25
2022-09-28T16:48:16.098Z,96697.50
2022-09-28T16:53:37.924Z,96706.13
2022-09-28T16:58:42.305Z,96711.03
2022-09-28T17:03:46.880Z,96705.78
2022-09-28T17:08:51.165Z,96715.25
2022-09-28T17:13:56.609Z,96719.91
2022-09-28T17:18:59.787Z,96723.06
2022-09-28T17:24:04.256Z,96725.53
2022-09-28T17:29:09.665Z,96735.00
2022-09-28T17:34:15.171Z,96733.97
2022-09-28T17:39:20.191Z,96741.34
2022-09-28T17:44:22.948Z,96742.91
2022-09-28T17:49:26.923Z,96742.41
2022-09-28T17:54:30.977Z,96751.94
2022-09-28T17:59:33.880Z,96754.31
2022-09-28T18:04:51.705Z,96755.63
2022-09-28T18:09:58.186Z,96760.09
2022-09-28T18:15:00.985Z,96765.22
2022-09-28T18:20:03.961Z,96763.75
2022-09-28T18:25:11.018Z,96760.75
2022-09-28T18:30:13.827Z,96768.72
2022-09-28T18:35:22.012Z,96769.22
2022-09-28T18:40:27.311Z,96775.03
2022-09-28T18:45:31.077Z,96814.91
2022-09-28T18:50:34.548Z,96834.88
2022-09-28T18:55:39.860Z,96844.84
2022-09-28T19:00:43.725Z,96864.47
2022-09-28T19:05:46.669Z,96854.31
2022-09-28T19:10:51.683Z,96853.94
2022-09-28T19:15:54.434Z,96847.75
2022-09-28T19:20:57.646Z,96850.06
2022-09-28T19:26:04.610Z,96850.22
2022-09-28T19:31:09.274Z,96862.81
2022-09-28T19:36:14.647Z,96853.34
2022-09-28T19:41:39.060Z,96854.00
2022-09-28T19:46:42.661Z,96863.94
2022-09-28T19:52:08.474Z,96861.97
2022-09-28T19:57:15.867Z,96864.75
2022-09-28T20:02:19.671Z,96866.84
2022-09-28T20:07:22.499Z,96862.22
2022-09-28T20:12:26.629Z,96855.91
2022-09-28T20:17:29.453Z,96871.19
2022-09-28T20:22:32.267Z,96875.47
2022-09-28T20:27:36.489Z,96863.72
2022-09-28T20:32:39.761Z,96870.16
2022-09-28T20:37:43.162Z,96874.47
2022-09-28T20:42:47.597Z,96864.34
2022-09-28T20:47:50.334Z,96859.19
2022-09-28T20:52:53.393Z,96857.97
2022-09-28T20:57:57.556Z,96856.94
2022-09-28T21:03:00.357Z,96856.44
2022-09-28T21:08:03.374Z,96857.00
2022-09-28T21:13:08.728Z,96861.59
2022-09-28T21:18:11.519Z,96855.97
2022-09-28T21:23:14.451Z,96851.66
2022-09-28T21:28:18.881Z,96862.13
2022-09-28T21:33:22.087Z,96875.25
2022-09-28T21:38:25.206Z,96873.66
2022-09-28T21:43:32.089Z,96867.38
2022-09-28T21:48:34.909Z,96864.94
2022-09-28T21:53:38.979Z,96861.25
2022-09-28T21:58:43.065Z,96865.19
2022-09-28T22:03:48.448Z,96865.88
2022-09-28T22:08:51.734Z,96871.50
2022-09-28T22:13:57.626Z,96873.63
2022-09-28T22:19:01.041Z,96875.75
2022-09-28T22:24:06.426Z,96871.59
2022-09-28T22:29:11.337Z,96880.34
2022-09-28T22:34:14.308Z,96879.00
2022-09-28T22:39:17.071Z,96876.00
2022-09-28T22:44:21.811Z,96877.97
2022-09-28T22:49:24.693Z,96878.44
2022-09-28T22:54:27.590Z,96877.06
2022-09-28T22:59:31.694Z,96870.69
2022-09-28T23:04:34.467Z,96876.63
2022-09-28T23:09:37.243Z,96859.78
2022-09-28T23:14:41.433Z,96868.66
2022-09-28T23:19:44.119Z,96871.56
2022-09-28T23:24:46.871Z,96877.53
2022-09-28T23:29:53.745Z,96866.13
2022-09-28T23:34:56.913Z,96869.84
2022-09-28T23:39:59.935Z,96877.16
2022-09-28T23:45:04.294Z,96868.44
2022-09-28T23:50:07.855Z,96865.69
2022-09-28T23:55:10.683Z,96875.44
